Погода Куганаволокна 2 недели

Республика Карелия, Россия

24 июля-06 августа
  • 24июля
    Сегодня
    +12°
    +29°
    Облачно с прояснениями
    ВремяПогодаТемператураВлажностьДавлениеВетер, м/сВероятность осадков
    00:00Ясно и безоблачно+14°C78 %758 мм0.0 м/с2 %
    03:00Ясно и безоблачно+12°C89 %758 мм0.0 м/с2 %
    06:00Ясно и безоблачно+15°C88 %758 мм0.0 м/с2 %
    09:00Ясно и безоблачно+23°C68 %758 мм0.0 м/с2 %
    12:00Небольшая облачность+26°C47 %757 мм0.3 м/с2 %
    15:00Облачно с прояснениями+28°C43 %757 мм0.6 м/с2 %
    18:00Ясно и безоблачно+28°C56 %756 мм0.7 м/с2 %
    21:00Ясно и безоблачно+20°C76 %756 мм0.6 м/с2 %
  • 25июля
    Четверг
    +10°
    +27°
    Небольшая облачность и лёгкий дождик
    ВремяПогодаТемператураВлажностьДавлениеВетер, м/сВероятность осадков
    00:00Облачно с прояснениями+16°C83 %756 мм0.4 м/с2 %
    03:00Облачно с прояснениями+13°C79 %755 мм0.6 м/с2 %
    06:00Небольшая облачность+16°C86 %755 мм0.3 м/с2 %
    09:00Ясно и безоблачно+23°C68 %755 мм0.7 м/с2 %
    12:00Ясно и безоблачно+26°C49 %755 мм0.9 м/с15 %
    15:00Небольшая облачность и лёгкий дождик+26°C53 %755 мм1.3 м/с27 %
    18:00Практически безоблачно+26°C63 %755 мм0.7 м/с23 %
    21:00Ясно и безоблачно+19°C87 %755 мм0.3 м/с2 %
  • 26июля
    Пятница
    +12°
    +26°
    Практически безоблачно
    ВремяПогодаТемператураВлажностьДавлениеВетер, м/сВероятность осадков
    00:00Практически безоблачно+15°C96 %755 мм0.0 м/с2 %
    03:00Ясно и безоблачно+10°C95 %755 мм0.3 м/с2 %
    06:00Ясно и безоблачно+14°C91 %755 мм0.0 м/с2 %
    09:00Ясно и безоблачно+22°C68 %755 мм0.1 м/с2 %
    12:00Практически безоблачно+24°C52 %755 мм0.2 м/с35 %
    15:00Практически безоблачно+26°C51 %755 мм0.6 м/с37 %
    18:00Ясно и безоблачно+26°C58 %755 мм0.4 м/с18 %
    21:00Ясно и безоблачно+18°C84 %755 мм0.1 м/с2 %
  • 27июля
    Суббота
    +12°
    +28°
    Ясно и безоблачно
    ВремяПогодаТемператураВлажностьДавлениеВетер, м/сВероятность осадков
    00:00Ясно и безоблачно+14°C92 %755 мм0.0 м/с2 %
    03:00Ясно и безоблачно+13°C95 %755 мм0.1 м/с2 %
    06:00Ясно и безоблачно+16°C89 %755 мм0.0 м/с2 %
    09:00Ясно и безоблачно+23°C70 %755 мм0.4 м/с5 %
    12:00Практически безоблачно+26°C53 %754 мм1.0 м/с27 %
    15:00Ясно и безоблачно+27°C45 %754 мм1.8 м/с17 %
    18:00Практически безоблачно+26°C57 %754 мм1.6 м/с17 %
    21:00Ясно и безоблачно+19°C86 %754 мм0.6 м/с2 %
  • 28июля
    Воскресенье
    +10°
    +26°
    Практически безоблачно
    ВремяПогодаТемператураВлажностьДавлениеВетер, м/сВероятность осадков
    00:00Ясно и безоблачно+12°C94 %754 мм0.3 м/с2 %
    03:00Ясно и безоблачно+13°C88 %755 мм0.7 м/с5 %
    06:00Ясно и безоблачно+14°C81 %755 мм0.1 м/с15 %
    09:00Практически безоблачно+21°C72 %755 мм0.5 м/с22 %
    12:00Ясно и безоблачно+24°C53 %755 мм0.4 м/с44 %
    15:00Практически безоблачно+25°C53 %754 мм0.7 м/с36 %
    18:00Облачно с прояснениями+25°C58 %753 мм0.5 м/с31 %
    21:00Пасмурно, сплошная облачность+18°C83 %752 мм0.3 м/с26 %
Мы используем cookies
Соглашаюсь